• Join FlightAware (Why Join?)
  • Login
  • US Flag 
07:21AM EDT


 

Airport Tracker/Info


-or-


 

Live Flight TrackerFlight Track Log ✈ KLM1278 ✈ 19-Aug-2014 ✈ EGPH / EDI - EHAM / AMS

Flight Track Log - Related Links

Times and Time Zones

All times are in EDT time to prevent confusion due to time zone crossing. See the KLM1278 flight status page for this flight to view local times or setup timezone preferences in your user account.

Time Position Orientation Groundspeed Altitude Reporting Facility
EDT Latitude Longitude Course Direction KTS MPH feet Rate Location/Type
04:24AM 55.9454 -3.3856 239° Southwest 146 168 500  Level FlightAware ADS-B (EGPH / EDI)
04:25AM 55.9334 -3.4216 239° Southwest 147 169 2,000 1,860 Climbing FlightAware ADS-B (EGPF / GLA)
04:25AM 55.9227 -3.4533 240° Southwest 205 236 2,400 1,260 Climbing FlightAware ADS-B (EGPF / GLA)
04:26AM 55.9113 -3.4864 238° Southwest 242 278 3,000 2,220 Climbing FlightAware ADS-B (EGPF / GLA)
04:26AM 55.8984 -3.5224 238° Southwest 265 305 3,900 2,820 Climbing FlightAware ADS-B (EGPF / GLA)
04:26AM 55.8883 -3.5476 227° Southwest 270 311 4,600 2,820 Climbing FlightAware ADS-B (EGPG)
04:26AM 55.8825 -3.5564 215° Southwest 276 318 4,900 3,600 Climbing FlightAware ADS-B (EGPF / GLA)
04:27AM 55.8651 -3.5681 191° South 279 321 5,800 4,080 Climbing FlightAware ADS-B (EGPG)
04:27AM 55.8578 -3.5695 185° South 279 321 6,200 3,900 Climbing FlightAware ADS-B (EGPF / GLA)
04:27AM 55.8396 -3.5645 164° South 285 328 7,100 3,660 Climbing FlightAware ADS-B (EGPG)
04:27AM 55.8360 -3.5619 156° South 288 331 7,300 3,120 Climbing FlightAware ADS-B (EGPF / GLA)
04:27AM 55.8158 -3.5417 150° Southeast 297 342 8,200 2,700 Climbing FlightAware ADS-B (EGPG)
04:28AM 55.7927 -3.5180 150° Southeast 317 365 9,000 3,840 Climbing FlightAware ADS-B (EGPG)
04:28AM 55.7616 -3.4862 150° Southeast 314 361 11,400 4,200 Climbing FlightAware ADS-B (EGPF / GLA)
04:29AM 55.7128 -3.4374 151° Southeast 319 367 13,300 3,600 Climbing FlightAware ADS-B (EGPN / DND)
04:29AM 55.6712 -3.3948 147° Southeast 326 375 15,200 3,600 Climbing FlightAware ADS-B (EGAA / BFS)
04:29AM 55.6631 -3.3835 138° Southeast 325 374 16,100 3,180 Climbing FlightAware ADS-B (EGPF / GLA)
04:30AM 55.6181 -3.3103 137° Southeast 340 391 17,700 3,000 Climbing FlightAware ADS-B (EGPG)
04:30AM 55.5821 -3.2505 137° Southeast 348 400 19,300 3,120 Climbing FlightAware UK
04:31AM 55.5751 -3.2385 136° Southeast 347 399 19,800 2,760 Climbing FlightAware ADS-B (EGPG)
04:31AM 55.5371 -3.1754 138° Southeast 363 418 21,100 2,040 Climbing FlightAware ADS-B (EGPF / GLA)
04:31AM 55.5162 -3.1351 127° Southeast 380 437 21,400 1,920 Climbing FlightAware ADS-B (EGOQ)
04:32AM 55.4838 -3.0512 124° Southeast 392 451 22,700 2,460 Climbing FlightAware ADS-B (EGPF / GLA)
04:32AM 55.4509 -2.9647 123° Southeast 404 465 24,100 2,460 Climbing FlightAware ADS-B (EGPF / GLA)
04:33AM 55.4180 -2.8758 123° Southeast 412 474 25,400 2,280 Climbing FlightAware ADS-B (EGPG)
04:34AM 55.3866 -2.7907 123° Southeast 419 482 26,500 2,220 Climbing FlightAware ADS-B (EGPF / GLA)
04:34AM 55.3560 -2.7072 123° Southeast 426 490 27,700 2,100 Climbing FlightAware ADS-B (EGPF / GLA)
04:35AM 55.3160 -2.5993 124° Southeast 434 499 28,800 1,980 Climbing FlightAware ADS-B (EGPF / GLA)
04:35AM 55.2822 -2.5106 124° Southeast 440 506 29,900 2,100 Climbing FlightAware ADS-B (EGOQ)
04:36AM 55.2549 -2.4391 124° Southeast 446 513 30,800 1,740 Climbing FlightAware ADS-B (EGPF / GLA)
04:36AM 55.2188 -2.3423 123° Southeast 450 518 31,500 1,380 Climbing FlightAware ADS-B (EGPH / EDI)
04:36AM 55.2121 -2.3242 123° Southeast 452 520 31,700 1,500 Climbing FlightAware ADS-B (EGOQ)
04:37AM 55.1687 -2.2108 124° Southeast 457 526 32,600 1,620 Climbing FlightAware ADS-B (EGPG)
04:37AM 55.1639 -2.1986 123° Southeast 457 526 32,800 1,560 Climbing FlightAware ADS-B (EGBO)
04:37AM 55.1358 -2.1259 131° Southeast 465 535 33,400 1,200 Climbing FlightAware ADS-B (EGNT / NCL)
04:37AM 55.1374 -2.1315 130° Southeast 465 535 33,400 660 Level FlightAware ADS-B (EGBO)
04:37AM 55.1188 -2.0950 129° Southeast 463 533 33,500 1,320 Climbing FlightAware ADS-B (EGPF / GLA)
04:38AM 55.0808 -2.0359 139° Southeast 473 544 34,100 1,320 Climbing FlightAware ADS-B (EGBO)
04:38AM 55.0673 -2.0157 139° Southeast 476 548 34,200 1,380 Climbing FlightAware ADS-B (EGPF / GLA)
04:38AM 55.0136 -1.9327 138° Southeast 478 550 35,000 1,500 Climbing FlightAware ADS-B (EGBO)
04:39AM 55.0084 -1.9250 139° Southeast 479 551 35,100 1,500 Climbing FlightAware ADS-B (EGOQ)
04:39AM 54.9584 -1.8491 139° Southeast 480 552 35,800 1,320 Climbing FlightAware ADS-B (EGPH / EDI)
04:39AM 54.9255 -1.8010 138° Southeast 474 545 36,200 1,380 Climbing FlightAware ADS-B (EGCB)
04:40AM 54.8713 -1.7175 139° Southeast 479 551 37,000 1,320 Climbing FlightAware ADS-B (EGGP / LPL)
04:40AM 54.8376 -1.6673 138° Southeast 479 551 37,400 1,260 Climbing FlightAware ADS-B (EGBO)
04:41AM 54.8254 -1.6496 139° Southeast 479 551 37,800 1,440 Climbing FlightAware ADS-B (EGPF / GLA)
04:41AM 54.7852 -1.5894 139° Southeast 478 550 38,100 1,080 Climbing FlightAware ADS-B (EGBO)
04:41AM 54.7550 -1.5443 139° Southeast 479 551 38,400 780 Climbing FlightAware ADS-B (EGCN / DSA)
04:41AM 54.7436 -1.5269 139° Southeast 478 550 38,500 900 Climbing FlightAware ADS-B (EGBO)
04:42AM 54.7012 -1.4646 139° Southeast 479 551 38,900 960 Climbing FlightAware ADS-B (EGNT / NCL)
04:42AM 54.6909 -1.4498 139° Southeast 479 551 39,000 120 Climbing FlightAware ADS-B (EGBO)
04:42AM 54.6340 -1.3649 139° Southeast 480 552 39,000  Level FlightAware ADS-B (EGBO)
04:43AM 54.6325 -1.3624 139° Southeast 480 552 39,000  Level FlightAware ADS-B (EGBO)
04:43AM 54.5771 -1.2804 139° Southeast 480 552 39,000  Level FlightAware ADS-B (EGPH / EDI)
04:43AM 54.5357 -1.2184 139° Southeast 479 551 39,000  Level FlightAware ADS-B (EGBO)
04:43AM 54.5238 -1.2011 139° Southeast 473 544 39,000  Level FlightAware ADS-B (EGCB)
04:43AM 54.5155 -1.1889 139° Southeast 473 544 39,000  Level FlightAware ADS-B (EGNR / CEG)
04:44AM 54.4937 -1.1568 139° Southeast 472 543 39,000  Level FlightAware ADS-B (EGCB)
04:44AM 54.4865 -1.1469 139° Southeast 478 550 39,000  Level FlightAware ADS-B (EGBO)
04:44AM 54.4400 -1.0809 139° Southeast 476 548 39,000  Level FlightAware ADS-B (EGBO)
04:45AM 54.3886 -1.0048 139° Southeast 471 542 39,000  Level FlightAware ADS-B (EGCB)
04:45AM 54.3956 -1.0146 139° Southeast 476 548 39,000  Level FlightAware ADS-B (EGBO)
04:45AM 54.3324 -0.9219 140° Southeast 475 547 39,000  Level FlightAware ADS-B (EGXU / HRT)
04:46AM 54.2828 -0.8513 139° Southeast 475 547 39,000  Level FlightAware ADS-B (EGBO)
04:46AM 54.2785 -0.8439 139° Southeast 469 540 39,000  Level FlightAware ADS-B (EGCB)
04:46AM 54.2794 -0.8464 140° Southeast 475 547 39,000  Level FlightAware ADS-B (EGLF / FAB)
04:46AM 54.2335 -0.7780 139° Southeast 474 545 39,000  Level FlightAware ADS-B (EGBO)
04:46AM 54.2207 -0.7583 139° Southeast 475 547 39,000  Level FlightAware ADS-B (EGCN / DSA)
04:47AM 54.2016 -0.7311 139° Southeast 474 545 39,000  Level FlightAware ADS-B (EGBO)
04:47AM 54.1646 -0.6751 139° Southeast 468 539 39,000  Level FlightAware ADS-B (EGCB)
04:47AM 54.1377 -0.6360 139° Southeast 473 544 39,000  Level FlightAware ADS-B (EGBO)
04:47AM 54.1095 -0.5947 139° Southeast 474 545 39,000  Level FlightAware ADS-B (EGXU / HRT)
04:48AM 54.0854 -0.5605 139° Southeast 473 544 39,000  Level FlightAware ADS-B (EGBO)
04:48AM 54.0586 -0.5193 140° Southeast 474 545 39,000  Level FlightAware ADS-B (EGNT / NCL)
04:48AM 54.0437 -0.4977 139° Southeast 473 544 39,000  Level FlightAware ADS-B (EGBO)
04:48AM 54.0320 -0.4807 140° Southeast 474 545 39,000  Level FlightAware ADS-B (EGOQ)
04:48AM 54.0358 -0.4879 139° Southeast 473 544 39,000  Level FlightAware ADS-B (EGNT / NCL)
04:49AM 53.9994 -0.4349 139° Southeast 467 537 39,000  Level FlightAware ADS-B (EGCB)
04:49AM 53.9662 -0.3866 139° Southeast 467 537 39,000  Level FlightAware ADS-B (EGCB)
04:49AM 53.9243 -0.3265 139° Southeast 474 545 39,000  Level FlightAware ADS-B (EGBO)
04:49AM 53.9182 -0.3170 140° Southeast 475 547 39,000  Level FlightAware ADS-B (EGXP / SQZ)
04:50AM 53.8775 -0.2591 139° Southeast 475 547 39,000  Level FlightAware ADS-B (EGBO)
04:50AM 53.8678 -0.2448 140° Southeast 475 547 39,000  Level FlightAware ADS-B (EGOQ)
04:50AM 53.8308 -0.1919 140° Southeast 477 549 39,000  Level FlightAware ADS-B (EGOQ)
04:50AM 53.8256 -0.1846 139° Southeast 476 548 39,000  Level FlightAware ADS-B (EGBO)
04:51AM 53.7757 -0.1124 140° Southeast 478 550 39,000  Level FlightAware ADS-B (EGCN / DSA)
04:51AM 53.7734 -0.1100 139° Southeast 478 550 39,000  Level FlightAware ADS-B (EGBO)
04:51AM 53.7424 -0.0640 139° Southeast 474 545 39,000  Level FlightAware ADS-B (EGLW)
04:51AM 53.7275 -0.0444 139° Southeast 480 552 39,000  Level FlightAware ADS-B (EGBO)
04:52AM 53.6788 0.0258 140° Southeast 481 554 39,000  Level FlightAware ADS-B (EGNB)
04:52AM 53.6725 0.0355 139° Southeast 481 554 39,000  Level FlightAware ADS-B (EGBO)
04:52AM 53.6214 0.1079 139° Southeast 481 554 39,000  Level FlightAware ADS-B (EGBO)
04:52AM 53.6250 0.1030 140° Southeast 482 555 39,000  Level FlightAware ADS-B (EGOQ)
04:53AM 53.5733 0.1752 139° Southeast 480 552 39,000  Level FlightAware ADS-B (EGBO)
04:53AM 53.5632 0.1895 140° Southeast 481 554 39,000  Level FlightAware ADS-B (EGYM / MRH)
04:53AM 53.5210 0.2494 140° Southeast 479 551 39,000  Level FlightAware ADS-B (EGBO)
04:53AM 53.5130 0.2612 140° Southeast 480 552 39,000  Level FlightAware ADS-B (EGLW)
04:54AM 53.4700 0.3207 140° Southeast 480 552 39,000  Level FlightAware ADS-B (EGBO)
04:54AM 53.4667 0.3255 140° Southeast 480 552 39,000  Level FlightAware ADS-B (EGYM / MRH)
04:54AM 53.4197 0.3899 140° Southeast 480 552 39,000  Level FlightAware ADS-B (EGBO)
04:54AM 53.4072 0.4087 140° Southeast 481 554 39,000  Level FlightAware ADS-B (EGOQ)
04:55AM 53.3657 0.4660 140° Southeast 479 551 39,000  Level FlightAware ADS-B (EGBO)
04:55AM 53.3631 0.4705 140° Southeast 480 552 39,000  Level FlightAware ADS-B (EGWE)
04:55AM 53.3156 0.5369 140° Southeast 480 552 39,000  Level FlightAware ADS-B (EGBO)
04:55AM 53.3066 0.5488 140° Southeast 480 552 39,000  Level FlightAware ADS-B (EGNA)
04:56AM 53.2644 0.6080 140° Southeast 479 551 39,000  Level FlightAware ADS-B (EGBO)
04:56AM 53.2539 0.6224 140° Southeast 479 551 39,000  Level FlightAware ADS-B (EGYM / MRH)
04:56AM 53.2223 0.6677 137° Southeast 480 552 39,000  Level FlightAware ADS-B (EGYM / MRH)
04:56AM 53.2117 0.6870 127° Southeast 482 555 39,000  Level FlightAware ADS-B (EGBO)
04:57AM 53.1989 0.7177 116° Southeast 485 558 39,000  Level FlightAware ADS-B (EGBO)
04:57AM 53.1952 0.7311 115° Southeast 485 558 39,000  Level FlightAware ADS-B (EGCC / MAN)
04:57AM 53.1669 0.8489 112° Southeast 484 557 39,000  Level FlightAware ADS-B (EGHO)
04:57AM 53.1636 0.8627 111° Southeast 483 556 39,000  Level FlightAware ADS-B (EGBO)
04:58AM 53.1483 0.9283 111° Southeast 483 556 39,000  Level FlightAware ADS-B (EGXP / SQZ)
04:58AM 53.1446 0.9456 111° Southeast 483 556 39,000  Level FlightAware ADS-B (EGBO)
04:58AM 53.1206 1.0459 111° Southeast 483 556 39,000  Level FlightAware ADS-B (EGYM / MRH)
04:58AM 53.1164 1.0632 110° East 483 556 39,000  Level FlightAware ADS-B (EGBO)
04:58AM 53.1115 1.0913 107° East 483 556 39,000  Level FlightAware ADS-B (EGYM / MRH)
04:58AM 53.1089 1.1019 106° East 481 554 39,000  Level FlightAware ADS-B (EBZR / OBL)
04:59AM 53.0925 1.1943 107° East 484 557 39,000  Level FlightAware ADS-B (EGYM / MRH)
04:59AM 53.0893 1.2118 106° East 481 554 39,000 -480 Level FlightAware ADS-B (EGNR / CEG)
04:59AM 53.0860 1.2296 107° East 483 556 38,900 -2,040 Descending FlightAware ADS-B (EGXP / SQZ)
04:59AM 53.0665 1.3367 106° East 486 559 37,900 -2,220 Descending FlightAware ADS-B (EGLW)
05:00AM 53.0655 1.3401 106° East 486 559 37,700 -2,880 Descending FlightAware ADS-B (EGBO)
05:00AM 53.0543 1.4049 107° East 491 565 37,000 -3,360 Descending FlightAware ADS-B
05:00AM 53.0475 1.4413 106° East 494 568 36,100 -3,120 Descending FlightAware ADS-B (EGBO)
05:00AM 53.0342 1.5179 106° East 498 573 35,400 -2,820 Descending FlightAware ADS-B (EGOQ)
05:01AM 53.0141 1.6317 106° East 498 573 33,900 -3,000 Descending FlightAware ADS-B (EGLF / FAB)
05:01AM 52.9933 1.7484 107° East 497 572 32,100 -3,540 Descending FlightAware ADS-B (EGYM / MRH)
05:02AM 52.9710 1.8728 105° East 500 575 30,100 -3,780 Descending FlightAware ADS-B (EGLW)
05:02AM 52.9506 1.9913 106° East 499 574 28,100 -3,840 Descending FlightAware ADS-B (EGLC / LCY)
05:03AM 52.9479 2.0059 105° East 502 578 27,800 -3,120 Descending FlightAware ADS-B (EGLW)
05:03AM 52.9262 2.1344 106° East 494 568 26,100 -2,520 Descending FlightAware ADS-B (EGLW)
05:04AM 52.9089 2.2384 105° East 476 548 25,000 -1,800 Descending FlightAware ADS-B (EGSR)
05:04AM 52.9043 2.2665 105° East 469 540 25,000  Level FlightAware ADS-B (EGLF / FAB)
05:04AM 52.8803 2.4128 107° East 451 519 25,000  Level FlightAware ADS-B
05:05AM 52.8712 2.4551 109° East 449 517 25,000  Level FlightAware ADS-B (EBZR / OBL)
05:05AM 52.8481 2.5585 110° East 447 514 25,000 -180 Level FlightAware ADS-B
05:05AM 52.8430 2.5809 105° East 469 540 24,900 -1,620 Descending FlightAware ADS-B (EGLF / FAB)
05:06AM 52.8181 2.6919 109° East 439 505 23,900 -2,100 Descending FlightAware ADS-B
05:07AM 52.7912 2.8104 110° East 431 496 22,400 -2,280 Descending FlightAware ADS-B (EBZR / OBL)
05:07AM 52.7703 2.9049 110° East 422 486 21,300 -2,220 Descending FlightAware ADS-B (EBZR / OBL)
05:08AM 52.7482 3.0032 110° East 413 475 20,100 -2,220 Descending FlightAware ADS-B
05:08AM 52.7217 3.1189 110° East 398 458 18,600 -2,160 Descending FlightAware ADS-B (EBZR / OBL)
05:09AM 52.7103 3.1698 111° Southeast 392 451 17,400 -2,040 Descending FlightAware ADS-B (EHAM / AMS)
05:09AM 52.6761 3.3189 111° Southeast 378 435 16,200 -1,860 Descending FlightAware ADS-B (EBZR / OBL)
05:10AM 52.6576 3.3991 111° Southeast 367 422 15,300 -1,440 Descending FlightAware ADS-B (EBZR / OBL)
05:11AM 52.6458 3.4505 111° Southeast 354 407 14,700 -300 Descending FlightAware ADS-B (EHAM / AMS)
05:11AM 52.6349 3.4983 111° Southeast 348 400 15,100 -1,080 Climbing FlightAware ADS-B
05:11AM 52.6143 3.5871 110° East 347 399 14,000 -2,160 Descending FlightAware ADS-B
05:11AM 52.6107 3.6020 112° Southeast 346 398 13,800 -1,800 Descending FlightAware ADS-B
05:12AM 52.5872 3.6797 122° Southeast 339 390 12,900 -1,620 Descending FlightAware ADS-B (EHRD / RTM)
05:12AM 52.5867 3.6819 122° Southeast 339 390 12,900 -1,740 Level FlightAware ADS-B (EHGR / GLZ)
05:13AM 52.5604 3.7757 109° East 340 391 11,700 -1,860 Descending FlightAware ADS-B (EBZR / OBL)
05:13AM 52.5435 3.8475 113° Southeast 337 388 10,800 -1,620 Descending FlightAware ADS-B (EBZR / OBL)
05:14AM 52.5207 3.9136 119° Southeast 326 375 10,100 -1,080 Descending FlightAware ADS-B (EBZR / OBL)
05:14AM 52.5093 3.9472 120° Southeast 314 361 10,000 -300 Descending FlightAware ADS-B (EHRD / RTM)
05:14AM 52.5032 3.9612 119° Southeast 311 358 10,000  Level FlightAware ADS-B (EHGR / GLZ)
05:14AM 52.4893 4.0055 106° East 303 349 10,000 -360 Level FlightAware ADS-B (EBZR / OBL)
05:15AM 52.4852 4.0461 97° East 302 348 9,800 -1,020 Descending FlightAware ADS-B
05:15AM 52.4840 4.0598 99° East 304 350 9,600 -1,140 Descending FlightAware ADS-B (EHRD / RTM)
05:15AM 52.4799 4.1080 96° East 306 352 9,300 -840 Descending FlightAware ADS-B (EBZR / OBL)
05:15AM 52.4799 4.1428 89° East 307 353 9,100 -1,260 Descending FlightAware ADS-B (EBZR / OBL)
05:16AM 52.4805 4.1755 89° East 307 353 8,700 -1,080 Descending FlightAware ADS-B (EHRD / RTM)
05:16AM 52.4812 4.2104 89° East 307 353 8,600 -600 Descending FlightAware ADS-B (EBZR / OBL)
05:16AM 52.4821 4.2474 89° East 303 349 8,400 -780 Descending FlightAware ADS-B (EBZR / OBL)
05:16AM 52.4828 4.2791 90° East 294 338 8,200 -600 Descending FlightAware ADS-B
05:17AM 52.4835 4.3145 90° East 287 330 8,100 -780 Descending FlightAware ADS-B (EBZR / OBL)
05:17AM 52.4856 4.3546 79° East 273 314 7,800 -1,140 Descending FlightAware ADS-B (EHRD / RTM)
05:17AM 52.4928 4.3895 70° East 269 310 7,400 -1,440 Descending FlightAware ADS-B (EHAM / AMS)
05:17AM 52.4973 4.4086 70° East 266 306 7,100 -780 Descending FlightAware ADS-B (EHAM / AMS)
05:17AM 52.4995 4.4200 70° East 265 305 7,200 -1,200 Climbing FlightAware ADS-B (EHGR / GLZ)
05:18AM 52.5081 4.4594 71° East 260 299 6,600 -1,500 Descending FlightAware ADS-B
05:18AM 52.5142 4.4872 70° East 257 296 6,300 -1,680 Descending FlightAware ADS-B (EBZR / OBL)
05:18AM 52.5213 4.5198 70° East 253 291 5,700 -2,040 Descending FlightAware ADS-B (EHAM / AMS)
05:19AM 52.5287 4.5543 71° East 253 291 5,100 -2,160 Descending FlightAware ADS-B
05:19AM 52.5343 4.5796 71° East 251 289 4,500 -2,340 Descending FlightAware ADS-B
05:19AM 52.5424 4.6194 72° East 252 290 3,700 -1,860 Descending FlightAware ADS-B (EBZR / OBL)
05:20AM 52.5489 4.6516 75° East 244 281 3,300 -1,320 Descending FlightAware ADS-B (EBZR / OBL)
05:20AM 52.5500 4.6788 99° East 242 278 3,000 -1,140 Descending FlightAware ADS-B (EBZR / OBL)
05:20AM 52.5444 4.6963 138° Southeast 222 255 2,800 -420 Descending FlightAware ADS-B (EBZR / OBL)
05:20AM 52.5281 4.7118 158° South 214 246 2,800  Level FlightAware ADS-B (EBZR / OBL)
05:21AM 52.5060 4.7246 162° South 206 237 2,800 -240 Level FlightAware ADS-B (EBZR / OBL)
05:21AM 52.4964 4.7253 182° South 192 221 2,700 -660 Descending FlightAware ADS-B (EHRD / RTM)
05:21AM 52.4730 4.7222 185° South 180 207 2,400 -660 Descending FlightAware ADS-B
05:21AM 52.4662 4.7214 162° South 206 237 2,300 -1,200 Descending FlightAware ADS-B (EBZR / OBL)
05:22AM 52.4594 4.7208 183° South 177 204 2,100 -1,680 Descending FlightAware ADS-B
05:22AM 52.4547 4.7203 185° South 181 208 2,000 -960 Descending FlightAware ADS-B (EHRD / RTM)
05:22AM 52.4380 4.7186 183° South 165 190 1,700 -900 Descending FlightAware ADS-B (EBZR / OBL)
05:22AM 52.4233 4.7176 183° South 164 189 1,400 -840 Descending FlightAware ADS-B (EHAM / AMS)
05:23AM 52.4041 4.7158 184° South 149 171 1,100 -840 Descending FlightAware ADS-B (EBZR / OBL)
05:23AM 52.3928 4.7147 183° South 148 170 800 -1,020 Descending FlightAware ADS-B (EBZR / OBL)
05:23AM 52.3825 4.7138 183° South 145 167 600 -840 Descending FlightAware ADS-B (EBZR / OBL)
05:26AM 52.3086 4.7639 158° South  Level Estimated
05:27AM 52.3086 4.7639 North  Level Estimated
05:28AM 52.3086 4.7639 North  Level Estimated